createdAt,value
2022-08-21T00:00:26.763Z,3.67
2022-08-21T00:01:29.426Z,3.45
2022-08-21T00:02:30.899Z,3.40
2022-08-21T00:03:32.497Z,3.63
2022-08-21T00:04:33.913Z,3.90
2022-08-21T00:05:37.482Z,3.92
2022-08-21T00:06:39.190Z,3.70
2022-08-21T00:07:40.531Z,3.55
2022-08-21T00:08:42.851Z,3.45
2022-08-21T00:09:44.296Z,4.15
2022-08-21T00:10:47.117Z,4.13
2022-08-21T00:11:48.779Z,3.53
2022-08-21T00:12:50.453Z,3.70
2022-08-21T00:13:51.858Z,3.88
2022-08-21T00:14:57.117Z,3.55
2022-08-21T00:16:00.288Z,3.83
2022-08-21T00:17:02.098Z,4.00
2022-08-21T00:18:04.884Z,4.05
2022-08-21T00:19:07.223Z,4.28
2022-08-21T00:20:09.753Z,3.92
2022-08-21T00:21:12.968Z,3.90
2022-08-21T00:22:14.369Z,4.30
2022-08-21T00:23:16.289Z,3.72
2022-08-21T00:24:17.645Z,3.80
2022-08-21T00:25:19.846Z,4.30
2022-08-21T00:26:25.871Z,4.25
2022-08-21T00:27:27.259Z,3.80
2022-08-21T00:28:28.625Z,3.63
2022-08-21T00:29:29.977Z,3.90
2022-08-21T00:30:31.489Z,3.92
2022-08-21T00:31:32.869Z,4.20
2022-08-21T00:32:37.054Z,3.90
2022-08-21T00:33:38.857Z,4.05
2022-08-21T00:34:40.194Z,3.72
2022-08-21T00:35:42.640Z,3.75
2022-08-21T00:36:44.071Z,3.58
2022-08-21T00:37:45.437Z,4.00
2022-08-21T00:38:47.112Z,4.03
2022-08-21T00:39:48.542Z,3.55
2022-08-21T00:40:52.050Z,3.97
2022-08-21T00:41:53.372Z,3.78
2022-08-21T00:42:54.951Z,3.78
2022-08-21T00:43:56.524Z,3.60
2022-08-21T00:44:58.036Z,3.72
2022-08-21T00:45:59.751Z,3.75
2022-08-21T00:47:01.114Z,3.75
2022-08-21T00:48:02.931Z,3.92
2022-08-21T00:49:05.556Z,3.78
2022-08-21T00:50:07.682Z,4.00
2022-08-21T00:51:23.322Z,4.03
2022-08-21T00:52:26.134Z,3.83
2022-08-21T00:53:28.142Z,4.25
2022-08-21T00:54:30.800Z,3.70
2022-08-21T00:55:32.247Z,4.35
2022-08-21T00:56:35.092Z,3.70
2022-08-21T00:57:44.650Z,4.07
2022-08-21T00:58:46.687Z,4.28
2022-08-21T00:59:52.022Z,4.18
2022-08-21T01:00:53.882Z,3.88
2022-08-21T01:01:55.308Z,3.78
2022-08-21T01:02:57.845Z,3.80
2022-08-21T01:03:59.769Z,3.90
2022-08-21T01:05:01.130Z,4.05
2022-08-21T01:06:04.531Z,3.50
2022-08-21T01:07:06.044Z,3.88
2022-08-21T01:08:08.310Z,4.22
2022-08-21T01:09:09.883Z,4.50
2022-08-21T01:10:13.371Z,4.18
2022-08-21T01:11:26.145Z,4.60
2022-08-21T01:12:27.623Z,3.95
2022-08-21T01:13:31.508Z,3.72
2022-08-21T01:14:33.191Z,4.05
2022-08-21T01:15:36.504Z,4.80
2022-08-21T01:16:37.857Z,4.28
2022-08-21T01:17:39.226Z,4.47
2022-08-21T01:18:40.679Z,4.43
2022-08-21T01:19:42.638Z,4.75
2022-08-21T01:20:46.676Z,3.92
2022-08-21T01:21:48.278Z,5.18
2022-08-21T01:22:49.617Z,4.50
2022-08-21T01:23:53.320Z,4.60
2022-08-21T01:24:54.794Z,4.32
2022-08-21T01:25:56.746Z,4.80
2022-08-21T01:26:58.485Z,4.60
2022-08-21T01:28:02.622Z,4.18
2022-08-21T01:29:04.062Z,4.40
2022-08-21T01:30:13.784Z,4.68
2022-08-21T01:31:15.841Z,5.00
2022-08-21T01:32:19.580Z,4.82
2022-08-21T01:33:22.994Z,4.55
2022-08-21T01:34:24.649Z,4.57
2022-08-21T01:35:26.141Z,4.80
2022-08-21T01:36:28.206Z,4.82
2022-08-21T01:37:29.660Z,4.22
2022-08-21T01:38:31.950Z,5.07
2022-08-21T01:39:34.700Z,4.40
2022-08-21T01:40:36.147Z,5.15
2022-08-21T01:41:37.533Z,4.55
2022-08-21T01:42:39.441Z,4.88
2022-08-21T01:43:41.249Z,4.30
2022-08-21T01:44:42.796Z,4.40
2022-08-21T01:45:44.156Z,4.70
2022-08-21T01:46:45.514Z,4.75
2022-08-21T01:47:47.182Z,4.53
2022-08-21T01:48:48.653Z,5.07
2022-08-21T01:49:50.162Z,4.43
2022-08-21T01:50:52.041Z,4.75
2022-08-21T01:51:58.147Z,4.75
2022-08-21T01:52:59.727Z,4.25
2022-08-21T01:54:01.219Z,4.80
2022-08-21T01:55:02.636Z,5.00
2022-08-21T01:56:05.050Z,4.47
2022-08-21T01:57:14.389Z,5.05
2022-08-21T01:58:15.849Z,4.68
2022-08-21T01:59:17.225Z,4.35
2022-08-21T02:00:20.174Z,4.05
2022-08-21T02:01:21.586Z,4.50
2022-08-21T02:02:23.086Z,4.25
2022-08-21T02:03:35.120Z,4.70
2022-08-21T02:04:37.681Z,4.90
2022-08-21T02:05:39.143Z,4.68
2022-08-21T02:06:41.318Z,4.78
2022-08-21T02:07:45.072Z,4.75
2022-08-21T02:08:47.183Z,4.38
2022-08-21T02:09:48.528Z,4.32
2022-08-21T02:10:50.858Z,4.53
2022-08-21T02:11:52.651Z,4.45
2022-08-21T02:12:54.587Z,4.50
2022-08-21T02:13:55.953Z,4.78
2022-08-21T02:14:57.295Z,4.63
2022-08-21T02:15:58.656Z,4.60
2022-08-21T02:17:05.220Z,4.35
2022-08-21T02:18:08.422Z,4.57
2022-08-21T02:19:10.399Z,4.60
2022-08-21T02:20:12.858Z,4.47
2022-08-21T02:21:14.208Z,4.38
2022-08-21T02:22:15.537Z,4.38
2022-08-21T02:23:17.209Z,4.50
2022-08-21T02:24:21.390Z,4.40
2022-08-21T02:25:24.337Z,4.90
2022-08-21T02:26:25.674Z,4.68
2022-08-21T02:27:27.632Z,4.43
2022-08-21T02:28:29.279Z,4.30
2022-08-21T02:29:30.644Z,4.53
2022-08-21T02:30:34.139Z,4.72
2022-08-21T02:31:35.620Z,4.35
2022-08-21T02:32:36.979Z,5.18
2022-08-21T02:33:38.556Z,4.70
2022-08-21T02:34:39.938Z,4.50
2022-08-21T02:35:45.242Z,4.68
2022-08-21T02:36:46.635Z,4.60
2022-08-21T02:38:03.185Z,4.70
2022-08-21T02:39:04.597Z,4.38
2022-08-21T02:40:06.262Z,4.85
2022-08-21T02:41:08.968Z,4.80
2022-08-21T02:42:10.342Z,5.25
2022-08-21T02:43:11.866Z,4.60
2022-08-21T02:44:13.265Z,4.20
2022-08-21T02:45:15.313Z,4.18
2022-08-21T02:46:18.436Z,4.30
2022-08-21T02:47:19.833Z,4.70
2022-08-21T02:48:23.817Z,5.25
2022-08-21T02:49:25.181Z,4.53
2022-08-21T02:50:29.182Z,4.50
2022-08-21T02:51:30.968Z,4.70
2022-08-21T02:52:32.332Z,4.65
2022-08-21T02:53:35.134Z,4.90
2022-08-21T02:54:36.541Z,4.40
2022-08-21T02:55:40.747Z,4.82
2022-08-21T02:56:42.100Z,4.25
2022-08-21T02:57:43.850Z,4.57
2022-08-21T02:58:47.650Z,4.65
2022-08-21T02:59:49.060Z,4.65
2022-08-21T03:00:50.873Z,4.63
2022-08-21T03:01:52.423Z,4.88
2022-08-21T03:02:54.400Z,4.53
2022-08-21T03:03:55.902Z,4.70
2022-08-21T03:04:57.465Z,4.80
2022-08-21T03:05:58.943Z,4.32
2022-08-21T03:07:01.132Z,4.70
2022-08-21T03:08:03.682Z,4.10
2022-08-21T03:09:05.118Z,4.83
2022-08-21T03:10:07.148Z,4.43
2022-08-21T03:11:08.674Z,4.87
2022-08-21T03:12:12.141Z,4.43
2022-08-21T03:13:14.674Z,4.20
2022-08-21T03:14:16.122Z,4.57
2022-08-21T03:15:18.626Z,4.22
2022-08-21T03:16:21.396Z,4.32
2022-08-21T03:17:29.391Z,4.63
2022-08-21T03:18:31.433Z,4.73
2022-08-21T03:19:32.855Z,4.03
2022-08-21T03:20:35.201Z,5.00
2022-08-21T03:21:36.581Z,4.40
2022-08-21T03:22:37.912Z,4.00
2022-08-21T03:23:40.699Z,4.30
2022-08-21T03:24:42.915Z,4.43
2022-08-21T03:25:45.722Z,4.03
2022-08-21T03:26:47.178Z,4.70
2022-08-21T03:27:53.262Z,4.20
2022-08-21T03:28:58.831Z,3.95
2022-08-21T03:30:00.284Z,4.43
2022-08-21T03:31:01.770Z,4.68
2022-08-21T03:32:03.272Z,5.10
2022-08-21T03:33:04.645Z,4.20
2022-08-21T03:34:05.977Z,4.70
2022-08-21T03:35:07.534Z,4.32
2022-08-21T03:36:09.099Z,4.37
2022-08-21T03:37:11.757Z,4.07
2022-08-21T03:38:16.054Z,4.07
2022-08-21T03:39:17.624Z,4.80
2022-08-21T03:40:19.977Z,4.00
2022-08-21T03:41:21.458Z,4.70
2022-08-21T03:42:23.008Z,4.53
2022-08-21T03:43:24.440Z,4.20
2022-08-21T03:44:25.887Z,4.03
2022-08-21T03:45:27.562Z,4.13
2022-08-21T03:46:28.940Z,4.20
2022-08-21T03:47:30.780Z,4.27
2022-08-21T03:48:32.435Z,4.40
2022-08-21T03:49:34.358Z,3.90
2022-08-21T03:50:40.866Z,4.33
2022-08-21T03:51:42.664Z,4.30
2022-08-21T03:52:44.014Z,4.17
2022-08-21T03:53:45.843Z,4.40
2022-08-21T03:54:47.310Z,3.90
2022-08-21T03:55:49.945Z,4.97
2022-08-21T03:56:51.388Z,4.50
2022-08-21T03:57:52.866Z,4.60
2022-08-21T03:58:54.201Z,4.23
2022-08-21T03:59:55.893Z,4.57
2022-08-21T04:00:59.177Z,4.60
2022-08-21T04:02:01.822Z,4.17
2022-08-21T04:03:03.287Z,4.53
2022-08-21T04:04:05.418Z,4.10
2022-08-21T04:05:07.620Z,4.30
2022-08-21T04:06:09.023Z,4.77
2022-08-21T04:07:10.377Z,4.73
2022-08-21T04:08:11.805Z,4.27
2022-08-21T04:09:13.215Z,4.33
2022-08-21T04:10:14.533Z,4.50
2022-08-21T04:11:15.887Z,4.67
2022-08-21T04:12:17.321Z,4.97
2022-08-21T04:13:21.979Z,4.27
2022-08-21T04:14:23.476Z,4.40
2022-08-21T04:15:26.037Z,4.10
2022-08-21T04:16:27.588Z,4.60
2022-08-21T04:17:28.971Z,4.60
2022-08-21T04:18:30.403Z,4.07
2022-08-21T04:19:31.785Z,4.30
2022-08-21T04:20:34.227Z,4.60
2022-08-21T04:21:37.150Z,4.67
2022-08-21T04:22:38.862Z,4.60
2022-08-21T04:23:40.266Z,4.27
2022-08-21T04:24:41.714Z,5.20
2022-08-21T04:25:43.200Z,5.57
2022-08-21T04:26:46.844Z,5.63
2022-08-21T04:27:48.216Z,5.53
2022-08-21T04:28:49.547Z,5.60
2022-08-21T04:29:51.065Z,5.50
2022-08-21T04:30:52.995Z,6.13
2022-08-21T04:31:54.648Z,5.70
2022-08-21T04:32:56.839Z,5.80
2022-08-21T04:33:58.291Z,5.10
2022-08-21T04:35:01.977Z,5.70
2022-08-21T04:36:03.577Z,5.20
2022-08-21T04:37:04.960Z,5.30
2022-08-21T04:38:06.345Z,5.43
2022-08-21T04:39:07.709Z,5.23
2022-08-21T04:40:12.514Z,5.87
2022-08-21T04:41:13.940Z,5.10
2022-08-21T04:42:15.408Z,5.30
2022-08-21T04:43:16.887Z,5.10
2022-08-21T04:44:18.772Z,5.20
2022-08-21T04:45:22.072Z,5.67
2022-08-21T04:46:23.766Z,4.70
2022-08-21T04:47:41.869Z,4.87
2022-08-21T04:48:46.742Z,4.43
2022-08-21T04:49:48.116Z,4.30
2022-08-21T04:50:58.473Z,4.07
2022-08-21T04:52:00.323Z,4.07
2022-08-21T04:53:01.690Z,4.03
2022-08-21T04:54:06.818Z,4.43
2022-08-21T04:55:08.980Z,3.80
2022-08-21T04:56:21.686Z,3.87
2022-08-21T04:57:23.053Z,4.20
2022-08-21T04:58:42.663Z,3.85
2022-08-21T04:59:45.967Z,4.90
2022-08-21T05:00:48.047Z,4.30
2022-08-21T05:01:50.556Z,4.23
2022-08-21T05:02:57.277Z,4.27
2022-08-21T05:04:00.406Z,4.23
2022-08-21T05:05:01.870Z,4.10
2022-08-21T05:06:05.646Z,3.97
2022-08-21T05:07:11.334Z,3.77
2022-08-21T05:08:14.051Z,3.90
2022-08-21T05:09:16.415Z,4.10
2022-08-21T05:10:18.126Z,3.85
2022-08-21T05:11:21.007Z,4.05
2022-08-21T05:12:22.909Z,3.77
2022-08-21T05:13:24.324Z,4.20
2022-08-21T05:14:28.186Z,4.20
2022-08-21T05:15:30.921Z,3.87
2022-08-21T05:16:37.186Z,3.90
2022-08-21T05:17:39.609Z,4.03
2022-08-21T05:18:41.037Z,4.17
2022-08-21T05:19:42.540Z,4.25
2022-08-21T05:20:46.078Z,3.73
2022-08-21T05:21:48.523Z,4.40
2022-08-21T05:22:49.961Z,4.07
2022-08-21T05:23:51.351Z,4.40
2022-08-21T05:24:53.627Z,4.30
2022-08-21T05:25:56.557Z,3.72
2022-08-21T05:26:58.456Z,4.40
2022-08-21T05:28:00.704Z,4.18
2022-08-21T05:29:02.266Z,4.10
2022-08-21T05:30:03.854Z,3.70
2022-08-21T05:31:05.233Z,4.50
2022-08-21T05:32:13.287Z,3.88
2022-08-21T05:33:15.036Z,4.13
2022-08-21T05:34:19.332Z,3.85
2022-08-21T05:35:21.549Z,4.40
2022-08-21T05:36:23.277Z,4.28
2022-08-21T05:37:24.616Z,4.22
2022-08-21T05:38:28.123Z,3.95
2022-08-21T05:39:29.563Z,3.90
2022-08-21T05:40:50.977Z,3.47
2022-08-21T05:41:52.366Z,4.28
2022-08-21T05:42:55.560Z,3.80
2022-08-21T05:43:57.173Z,3.42
2022-08-21T05:44:58.531Z,3.90
2022-08-21T05:46:00.662Z,3.50
2022-08-21T05:47:09.373Z,3.70
2022-08-21T05:48:15.076Z,4.20
2022-08-21T05:49:16.415Z,3.78
2022-08-21T05:50:17.843Z,3.60
2022-08-21T05:51:19.195Z,3.85
2022-08-21T05:52:21.313Z,4.15
2022-08-21T05:53:23.908Z,3.83
2022-08-21T05:54:25.346Z,3.75
2022-08-21T05:55:26.785Z,4.65
2022-08-21T05:56:34.577Z,3.85
2022-08-21T05:57:35.969Z,4.00
2022-08-21T05:58:37.408Z,4.03
2022-08-21T05:59:38.827Z,3.78
2022-08-21T06:00:40.351Z,3.92
2022-08-21T06:01:41.860Z,3.90
2022-08-21T06:02:43.273Z,4.10
2022-08-21T06:03:44.709Z,3.78
2022-08-21T06:04:46.118Z,3.28
2022-08-21T06:05:47.797Z,3.90
2022-08-21T06:06:49.114Z,3.80
2022-08-21T06:07:50.489Z,4.53
2022-08-21T06:08:51.851Z,3.53
2022-08-21T06:09:53.192Z,3.67
2022-08-21T06:10:55.253Z,3.35
2022-08-21T06:11:56.650Z,3.35
2022-08-21T06:12:58.103Z,3.35
2022-08-21T06:13:59.686Z,3.58
2022-08-21T06:15:01.038Z,3.72
2022-08-21T06:16:15.658Z,3.63
2022-08-21T06:17:17.603Z,3.95
2022-08-21T06:18:19.038Z,3.20
2022-08-21T06:19:20.453Z,3.47
2022-08-21T06:20:22.439Z,3.80
2022-08-21T06:21:23.771Z,3.10
2022-08-21T06:22:25.167Z,3.40
2022-08-21T06:23:33.192Z,3.47
2022-08-21T06:24:35.145Z,4.13
2022-08-21T06:25:36.564Z,3.25
2022-08-21T06:26:38.117Z,3.97
2022-08-21T06:27:39.432Z,3.75
2022-08-21T06:28:41.549Z,3.58
2022-08-21T06:29:44.681Z,3.90
2022-08-21T06:30:46.388Z,3.70
2022-08-21T06:31:48.558Z,3.80
2022-08-21T06:32:50.019Z,3.53
2022-08-21T06:33:51.743Z,3.55
2022-08-21T06:34:53.196Z,3.97
2022-08-21T06:35:54.555Z,3.55
2022-08-21T06:36:55.963Z,3.72
2022-08-21T06:37:58.431Z,4.15
2022-08-21T06:38:59.809Z,3.75
2022-08-21T06:40:03.532Z,3.80
2022-08-21T06:41:05.930Z,3.85
2022-08-21T06:42:13.751Z,4.10
2022-08-21T06:43:16.935Z,4.22
2022-08-21T06:44:19.266Z,4.00
2022-08-21T06:45:20.922Z,3.40
2022-08-21T06:46:22.957Z,4.10
2022-08-21T06:47:24.395Z,3.90
2022-08-21T06:48:25.904Z,3.80
2022-08-21T06:49:27.314Z,3.60
2022-08-21T06:50:29.370Z,3.40
2022-08-21T06:51:32.772Z,3.80
2022-08-21T06:52:34.804Z,3.63
2022-08-21T06:53:36.241Z,3.70
2022-08-21T06:54:37.635Z,4.10
2022-08-21T06:55:39.815Z,3.15
2022-08-21T06:56:41.798Z,3.83
2022-08-21T06:57:43.448Z,3.47
2022-08-21T06:58:53.233Z,3.70
2022-08-21T06:59:55.821Z,3.47
2022-08-21T07:01:00.982Z,3.72
2022-08-21T07:02:03.011Z,3.47
2022-08-21T07:03:04.427Z,3.30
2022-08-21T07:04:06.018Z,4.15
2022-08-21T07:05:17.958Z,3.95
2022-08-21T07:06:19.684Z,3.40
2022-08-21T07:07:21.107Z,4.00
2022-08-21T07:08:22.815Z,3.30
2022-08-21T07:09:24.898Z,4.00
2022-08-21T07:10:27.294Z,3.72
2022-08-21T07:11:28.678Z,4.50
2022-08-21T07:12:30.069Z,3.63
2022-08-21T07:13:31.634Z,3.70
2022-08-21T07:14:33.213Z,4.15
2022-08-21T07:15:34.659Z,3.65
2022-08-21T07:16:36.316Z,3.95
2022-08-21T07:17:37.823Z,3.22
2022-08-21T07:18:39.205Z,3.70
2022-08-21T07:19:40.588Z,3.78
2022-08-21T07:20:42.338Z,3.50
2022-08-21T07:21:43.785Z,3.70
2022-08-21T07:22:45.282Z,3.85
2022-08-21T07:23:50.989Z,3.97
2022-08-21T07:24:52.453Z,3.97
2022-08-21T07:25:55.274Z,3.85
2022-08-21T07:26:56.809Z,3.90
2022-08-21T07:27:58.224Z,3.80
2022-08-21T07:28:59.592Z,3.25
2022-08-21T07:30:01.065Z,3.53
2022-08-21T07:31:03.062Z,3.30
2022-08-21T07:32:04.905Z,3.90
2022-08-21T07:33:06.316Z,3.90
2022-08-21T07:34:09.110Z,3.85
2022-08-21T07:35:10.499Z,3.72
2022-08-21T07:36:12.255Z,3.50
2022-08-21T07:37:13.598Z,3.60
2022-08-21T07:38:20.005Z,3.55
2022-08-21T07:39:21.409Z,3.78
2022-08-21T07:40:23.017Z,4.13
2022-08-21T07:41:26.235Z,4.25
2022-08-21T07:42:27.716Z,3.90
2022-08-21T07:43:29.862Z,3.42
2022-08-21T07:44:31.283Z,3.58
2022-08-21T07:45:33.130Z,3.83
2022-08-21T07:46:34.660Z,3.92
2022-08-21T07:47:42.765Z,4.30
2022-08-21T07:48:45.372Z,3.53
2022-08-21T07:49:47.427Z,4.53
2022-08-21T07:50:49.577Z,3.95
2022-08-21T07:51:51.262Z,3.50
2022-08-21T07:52:53.089Z,3.72
2022-08-21T07:53:55.921Z,3.95
2022-08-21T07:54:57.497Z,4.15
2022-08-21T07:55:59.050Z,3.67
2022-08-21T07:57:03.765Z,3.60
2022-08-21T07:58:05.765Z,3.90
2022-08-21T07:59:07.119Z,3.72
2022-08-21T08:00:10.457Z,3.63
2022-08-21T08:01:14.637Z,3.58
2022-08-21T08:02:26.633Z,4.10
2022-08-21T08:03:29.136Z,3.88
2022-08-21T08:04:30.785Z,3.47
2022-08-21T08:05:32.964Z,3.67
2022-08-21T08:06:35.046Z,3.55
2022-08-21T08:07:37.250Z,3.72
2022-08-21T08:08:42.314Z,3.97
2022-08-21T08:09:47.693Z,3.60
2022-08-21T08:10:50.375Z,3.83
2022-08-21T08:11:52.168Z,3.40
2022-08-21T08:12:55.388Z,3.65
2022-08-21T08:13:58.958Z,4.25
2022-08-21T08:15:02.028Z,3.78
2022-08-21T08:16:03.513Z,3.55
2022-08-21T08:17:04.920Z,3.45
2022-08-21T08:18:06.279Z,4.43
2022-08-21T08:19:07.692Z,3.65
2022-08-21T08:20:09.998Z,3.72
2022-08-21T08:21:12.064Z,3.40
2022-08-21T08:22:14.273Z,3.50
2022-08-21T08:23:16.044Z,3.70
2022-08-21T08:24:18.423Z,4.20
2022-08-21T08:25:21.462Z,3.55
2022-08-21T08:26:23.064Z,3.42
2022-08-21T08:27:25.062Z,3.22
2022-08-21T08:28:28.076Z,3.78
2022-08-21T08:29:29.398Z,3.47
2022-08-21T08:30:33.164Z,4.13
2022-08-21T08:31:34.762Z,3.45
2022-08-21T08:32:36.388Z,3.58
2022-08-21T08:33:37.885Z,3.70
2022-08-21T08:34:39.710Z,3.78
2022-08-21T08:35:42.458Z,3.92
2022-08-21T08:36:43.967Z,3.83
2022-08-21T08:37:46.766Z,4.18
2022-08-21T08:39:03.974Z,4.03
2022-08-21T08:40:11.919Z,3.55
2022-08-21T08:41:19.954Z,3.58
2022-08-21T08:42:33.642Z,3.55
2022-08-21T08:43:45.159Z,3.72
2022-08-21T08:44:47.922Z,3.88
2022-08-21T08:45:51.364Z,4.05
2022-08-21T08:46:53.693Z,4.13
2022-08-21T08:48:02.438Z,4.90
2022-08-21T08:49:08.858Z,5.13
2022-08-21T08:50:16.981Z,5.07
2022-08-21T08:51:30.981Z,4.20
2022-08-21T08:52:34.533Z,3.63
2022-08-21T08:53:43.628Z,4.82
2022-08-21T08:54:50.557Z,4.20
2022-08-21T08:55:54.433Z,4.38
2022-08-21T08:57:03.600Z,4.07
2022-08-21T08:58:10.688Z,4.30
2022-08-21T09:00:39.829Z,4.80
2022-08-21T09:01:41.957Z,4.53
2022-08-21T09:02:44.750Z,4.65
2022-08-21T09:03:51.080Z,3.80
2022-08-21T09:05:04.802Z,4.97
2022-08-21T09:06:06.729Z,5.20
2022-08-21T09:07:26.306Z,5.13
2022-08-21T09:08:49.955Z,4.72
2022-08-21T09:10:16.280Z,4.63
2022-08-21T09:11:18.318Z,4.03
2022-08-21T09:12:40.390Z,4.18
2022-08-21T09:15:57.394Z,4.57
2022-08-21T09:17:02.635Z,4.20
2022-08-21T09:18:12.862Z,4.15
2022-08-21T09:19:33.151Z,4.40
2022-08-21T09:20:40.167Z,4.35
2022-08-21T09:21:56.120Z,4.97
2022-08-21T09:23:07.348Z,5.10
2022-08-21T09:24:27.883Z,4.43
2022-08-21T09:25:49.710Z,3.95
2022-08-21T09:26:56.595Z,4.45
2022-08-21T09:27:58.308Z,4.00
2022-08-21T09:29:08.046Z,4.55
2022-08-21T09:30:32.101Z,3.78
2022-08-21T09:31:35.329Z,4.20
2022-08-21T09:32:43.637Z,4.50
2022-08-21T09:33:48.514Z,4.25
2022-08-21T09:34:58.336Z,4.60
2022-08-21T09:36:00.044Z,4.68
2022-08-21T09:37:01.930Z,4.40
2022-08-21T09:38:07.403Z,4.03
2022-08-21T09:39:10.981Z,4.65
2022-08-21T09:40:34.448Z,3.90
2022-08-21T09:41:37.449Z,3.63
2022-08-21T09:42:39.057Z,3.97
2022-08-21T09:43:40.563Z,4.43
2022-08-21T09:44:45.008Z,3.70
2022-08-21T09:45:47.346Z,3.70
2022-08-21T09:46:53.429Z,3.72
2022-08-21T09:47:55.405Z,3.83
2022-08-21T09:48:58.471Z,3.85
2022-08-21T09:50:08.817Z,4.15
2022-08-21T09:51:12.675Z,3.60
2022-08-21T09:52:19.239Z,3.30
2022-08-21T09:53:20.927Z,3.63
2022-08-21T09:54:25.104Z,3.05
2022-08-21T09:55:49.884Z,4.00
2022-08-21T09:57:12.941Z,3.58
2022-08-21T09:58:15.777Z,3.63
2022-08-21T09:59:27.543Z,3.65
2022-08-21T10:00:31.312Z,3.88
2022-08-21T10:01:33.002Z,3.75
2022-08-21T10:02:35.731Z,3.85
2022-08-21T10:03:37.300Z,3.50
2022-08-21T10:04:38.831Z,3.13
2022-08-21T10:05:43.281Z,3.42
2022-08-21T10:06:44.795Z,3.90
2022-08-21T10:07:46.742Z,3.55
2022-08-21T10:08:48.554Z,3.90
2022-08-21T10:10:14.435Z,3.38
2022-08-21T10:11:17.437Z,3.20
2022-08-21T10:12:24.230Z,3.40
2022-08-21T10:13:31.005Z,3.05
2022-08-21T10:15:04.305Z,3.33
2022-08-21T10:16:10.202Z,3.25
2022-08-21T10:17:17.771Z,3.20
2022-08-21T10:18:31.310Z,3.38
2022-08-21T10:19:48.082Z,3.95
2022-08-21T10:20:58.809Z,3.63
2022-08-21T10:22:09.150Z,3.30
2022-08-21T10:23:42.820Z,3.42
2022-08-21T10:24:53.777Z,3.33
2022-08-21T10:26:14.285Z,3.20
2022-08-21T10:27:29.721Z,3.33
2022-08-21T10:28:38.185Z,3.30
2022-08-21T10:29:39.879Z,3.50
2022-08-21T10:30:58.910Z,3.67
2022-08-21T10:32:11.353Z,3.47
2022-08-21T10:33:46.441Z,3.80
2022-08-21T10:35:03.050Z,3.20
2022-08-21T10:36:21.393Z,3.20
2022-08-21T10:37:48.081Z,3.05
2022-08-21T10:39:25.929Z,3.00
2022-08-21T10:40:32.066Z,3.35
2022-08-21T10:41:40.018Z,2.85
2022-08-21T10:42:44.675Z,3.15
2022-08-21T10:44:12.842Z,2.58
2022-08-21T10:45:16.839Z,3.38
2022-08-21T10:46:18.805Z,2.90
2022-08-21T10:47:33.110Z,2.78
2022-08-21T10:48:40.120Z,2.90
2022-08-21T10:50:03.639Z,2.72
2022-08-21T10:51:10.843Z,3.00
2022-08-21T10:52:30.949Z,3.00
2022-08-21T10:53:38.742Z,3.42
2022-08-21T10:54:40.442Z,3.10
2022-08-21T10:55:45.873Z,3.10
2022-08-21T10:56:48.974Z,2.95
2022-08-21T10:57:50.596Z,2.85
2022-08-21T10:59:05.756Z,2.80
2022-08-21T11:00:14.978Z,2.80
2022-08-21T11:01:23.500Z,3.25
2022-08-21T11:02:28.066Z,3.35
2022-08-21T11:03:48.644Z,2.90
2022-08-21T11:04:57.059Z,2.83
2022-08-21T11:06:04.316Z,3.42
2022-08-21T11:07:17.506Z,3.30
2022-08-21T11:08:29.369Z,2.75
2022-08-21T11:09:32.071Z,3.10
2022-08-21T11:10:51.305Z,3.40
2022-08-21T11:12:28.881Z,3.10
2022-08-21T11:13:37.089Z,3.53
2022-08-21T11:14:52.508Z,3.25
2022-08-21T11:16:00.192Z,2.83
2022-08-21T11:17:06.354Z,2.90
2022-08-21T11:18:18.401Z,3.58
2022-08-21T11:19:25.580Z,3.30
2022-08-21T11:20:34.216Z,3.03
2022-08-21T11:21:49.787Z,3.03
2022-08-21T11:22:58.912Z,2.80
2022-08-21T11:24:31.225Z,3.20
2022-08-21T11:25:37.025Z,3.08
2022-08-21T11:26:51.270Z,3.72
2022-08-21T11:27:53.061Z,3.03
2022-08-21T11:29:01.741Z,3.10
2022-08-21T11:30:04.118Z,3.30
2022-08-21T11:31:21.184Z,3.03
2022-08-21T11:32:25.511Z,2.88
2022-08-21T11:33:44.653Z,3.30
2022-08-21T11:35:02.864Z,3.30
2022-08-21T11:36:24.172Z,2.70
2022-08-21T11:37:51.547Z,2.40
2022-08-21T11:38:59.115Z,2.65
2022-08-21T11:40:19.408Z,3.03
2022-08-21T11:41:20.848Z,2.95
2022-08-21T11:42:29.766Z,3.00
2022-08-21T11:43:31.580Z,3.20
2022-08-21T11:44:47.525Z,3.00
2022-08-21T11:45:57.628Z,2.70
2022-08-21T11:46:59.974Z,2.90
2022-08-21T11:48:11.953Z,3.05
2022-08-21T11:49:17.833Z,3.30
2022-08-21T11:50:34.932Z,2.92
2022-08-21T11:51:37.912Z,2.75
2022-08-21T11:52:42.556Z,2.90
2022-08-21T11:53:54.412Z,2.92
2022-08-21T11:54:56.081Z,2.42
2022-08-21T11:56:15.108Z,3.03
2022-08-21T11:57:31.129Z,3.25
2022-08-21T11:58:36.545Z,3.13
2022-08-21T11:59:55.187Z,3.05
2022-08-21T12:01:04.902Z,2.60
2022-08-21T12:02:20.701Z,2.95
2022-08-21T12:03:26.544Z,2.70
2022-08-21T12:04:33.768Z,3.13
2022-08-21T12:05:41.003Z,2.55
2022-08-21T12:06:45.714Z,3.10
2022-08-21T12:07:47.600Z,2.83
2022-08-21T12:08:58.644Z,2.97
2022-08-21T12:10:00.329Z,2.80
2022-08-21T12:11:01.934Z,2.65
2022-08-21T12:12:09.511Z,2.70
2022-08-21T12:13:39.848Z,2.50
2022-08-21T12:14:45.311Z,2.70
2022-08-21T12:15:46.804Z,2.90
2022-08-21T12:16:50.184Z,2.90
2022-08-21T12:18:03.684Z,3.00
2022-08-21T12:19:05.501Z,2.78
2022-08-21T12:20:39.607Z,2.80
2022-08-21T12:21:58.432Z,2.95
2022-08-21T12:23:06.149Z,2.50
2022-08-21T12:24:14.365Z,3.50
2022-08-21T12:25:21.542Z,2.60
2022-08-21T12:26:36.605Z,2.58
2022-08-21T12:27:48.721Z,2.70
2022-08-21T12:28:50.858Z,2.95
2022-08-21T12:30:14.977Z,2.70
2022-08-21T12:31:24.999Z,3.10
2022-08-21T12:32:29.529Z,3.10
2022-08-21T12:33:42.750Z,2.60
2022-08-21T12:34:53.207Z,2.50
2022-08-21T12:36:02.162Z,2.88
2022-08-21T12:37:05.302Z,3.08
2022-08-21T12:38:26.029Z,2.38
2022-08-21T12:39:28.445Z,3.03
2022-08-21T12:40:45.103Z,2.72
2022-08-21T12:41:50.677Z,2.85
2022-08-21T12:43:00.302Z,2.78
2022-08-21T12:44:06.253Z,2.33
2022-08-21T12:45:23.392Z,2.90
2022-08-21T12:46:32.309Z,2.75
2022-08-21T12:48:06.609Z,3.30
2022-08-21T12:49:13.392Z,3.35
2022-08-21T12:50:20.731Z,3.10
2022-08-21T12:51:34.826Z,2.65
2022-08-21T12:52:48.570Z,2.63
2022-08-21T12:53:55.506Z,2.75
2022-08-21T12:54:57.423Z,2.70
2022-08-21T12:56:04.904Z,2.90
2022-08-21T12:57:08.060Z,2.70
2022-08-21T12:58:18.827Z,2.40
2022-08-21T12:59:21.250Z,2.75
2022-08-21T13:00:27.848Z,2.40
2022-08-21T13:01:41.520Z,2.60
2022-08-21T13:02:48.801Z,2.88
2022-08-21T13:03:57.314Z,2.72
2022-08-21T13:05:07.496Z,2.88
2022-08-21T13:06:15.066Z,2.42
2022-08-21T13:07:20.065Z,2.78
2022-08-21T13:08:27.016Z,2.50
2022-08-21T13:09:30.541Z,2.75
2022-08-21T13:10:33.331Z,2.65
2022-08-21T13:11:37.401Z,2.70
2022-08-21T13:12:43.042Z,2.60
2022-08-21T13:13:51.054Z,2.45
2022-08-21T13:14:53.499Z,3.08
2022-08-21T13:16:01.718Z,2.67
2022-08-21T13:17:05.206Z,2.47
2022-08-21T13:18:07.696Z,2.78
2022-08-21T13:19:23.325Z,2.60
2022-08-21T13:20:32.738Z,2.63
2022-08-21T13:21:35.543Z,2.42
2022-08-21T13:22:44.811Z,2.70
2022-08-21T13:23:49.349Z,2.70
2022-08-21T13:24:58.403Z,2.70
2022-08-21T13:26:17.832Z,2.70
2022-08-21T13:27:23.350Z,2.55
2022-08-21T13:28:25.384Z,2.92
2022-08-21T13:29:32.034Z,2.33
2022-08-21T13:30:40.502Z,2.85
2022-08-21T13:31:44.317Z,2.72
2022-08-21T13:32:51.710Z,2.70
2022-08-21T13:33:54.762Z,2.72
2022-08-21T13:34:56.972Z,2.58
2022-08-21T13:36:26.703Z,2.45
2022-08-21T13:37:30.337Z,2.40
2022-08-21T13:38:34.946Z,2.13
2022-08-21T13:39:37.156Z,2.65
2022-08-21T13:40:50.549Z,2.38
2022-08-21T13:41:57.245Z,2.28
2022-08-21T13:43:03.921Z,2.67
2022-08-21T13:44:20.493Z,2.15
2022-08-21T13:45:30.814Z,2.63
2022-08-21T13:46:36.493Z,2.47
2022-08-21T13:47:40.781Z,2.50
2022-08-21T13:48:43.057Z,2.40
2022-08-21T13:49:46.930Z,2.33
2022-08-21T13:50:48.703Z,2.70
2022-08-21T13:51:55.075Z,2.70
2022-08-21T13:53:05.589Z,2.53
2022-08-21T13:54:27.374Z,2.40
2022-08-21T13:55:45.704Z,3.55
2022-08-21T13:56:47.900Z,2.67
2022-08-21T13:57:59.465Z,3.00
2022-08-21T13:59:02.461Z,2.40
2022-08-21T14:00:15.102Z,2.83
2022-08-21T14:01:22.065Z,2.63
2022-08-21T14:02:25.089Z,2.80
2022-08-21T14:03:33.570Z,2.28
2022-08-21T14:04:44.276Z,2.35
2022-08-21T14:06:00.889Z,2.22
2022-08-21T14:07:03.846Z,2.80
2022-08-21T14:08:11.875Z,2.70
2022-08-21T14:09:21.480Z,3.20
2022-08-21T14:10:23.675Z,2.72
2022-08-21T14:11:30.112Z,2.80
2022-08-21T14:12:57.096Z,2.75
2022-08-21T14:14:00.787Z,2.42
2022-08-21T14:15:06.183Z,2.50
2022-08-21T14:16:26.478Z,2.67
2022-08-21T14:17:33.535Z,2.80
2022-08-21T14:18:44.370Z,2.70
2022-08-21T14:19:50.199Z,2.75
2022-08-21T14:20:52.191Z,2.70
2022-08-21T14:21:55.704Z,2.78
2022-08-21T14:22:57.705Z,2.90
2022-08-21T14:24:12.758Z,2.60
2022-08-21T14:25:27.952Z,2.50
2022-08-21T14:26:30.156Z,3.13
2022-08-21T14:27:33.104Z,3.17
2022-08-21T14:28:36.776Z,3.05
2022-08-21T14:29:42.019Z,3.22
2022-08-21T14:30:45.908Z,3.38
2022-08-21T14:31:54.983Z,3.05